Terminal Aerodrome Forecast
Issued by NWS

Home | Current Version | Previous Version | Text Only | Print | Product List | Glossary On
Versions: 1 2 3 4 5 6 7 8 9 10 11 12 13 14 15 16 17 18 19 20 21 22 23 24 25
107
FTUS43 KAPX 300617 AAA
TAFTVC
TAF AMD
KTVC 300617Z 3006/3106 09005KT P6SM OVC070
     FM301200 10007KT P6SM -RASN OVC060
     FM301500 12011G18KT 6SM -RA OVC025
     FM310100 07011G20KT 1 1/2SM -RA OVC025
     FM310400 07011G19KT 3SM -RA BR OVC015=

USA.gov is the U.S. government's official web portal to all federal, state and local government web resources and services.